Hopewell, Illinois
Current Conditions -  °F | °C
As of 12:35 AM on Sunday 21 Dec 2014 (Local Time) from KC75 Reporting Station
Overcast Overcast  
Wind Chill: 29°   Ceiling: 3500
Heat Index: 33°   Visibility: 7mi
Dew Point: 29°   Wind: 5mph
Humidity: 83%   Direction: 190°S
Pressure: 30.21"   Gusts: NA
Location:  41.0186°N, 89.479°W
Report Text: KC75 210635Z AUTO 19004KT 7SM OVC035 01/M02 A3021 RMK AO2 T00081018
Loading
Personal Weather Stations






























Interactive Weather Map New forecast layout! Learn more

10-Day Weather Forecast

Advertisements
Track Severe Weather on mobile